Latest Weather Observations for Edinburgh

IDS60801

Issued at 7:05 am CST Tuesday 2 September 2014 (issued every 30 minutes, with the page automatically refreshed every 10 minutes)

About weather observations | Map of weather stations | Latest weather observations for SA | Other Formats
Station Details ID: 023083 Name: EDINBURGH RAAF Lat: -34.71 Lon: 138.62 Height: 16.54 m
Data from the previous 72 hours. | See also: Recent months at Edinburgh
Date/Time
CST
Temp
°C
App
Temp
°C
Dew
Point
Rel
Hum
%
Delta-T
°C
Wind Press
QNH
hPa
Press
MSL
hPa
Rain
since 9 am
mm
Dir
 
Spd
km/h
Gust
km/h
Spd
kts
Gust
kts
02/07:00am 6.6 4.3 4.8 88 0.8 S 6 7 3 4 1024.1 1024.1 1.6
02/06:30am 6.6 4.3 4.6 87 0.9 S 6 7 3 4 1023.5 1023.5 1.6
02/06:00am 6.4 4.0 4.4 87 0.9 SW 6 7 3 4 1023.2 1023.2 1.6
02/05:30am 7.3 4.9 5.3 87 0.9 SSE 7 9 4 5 1022.6 1022.6 1.6
02/05:00am 7.4 4.9 5.0 85 1.1 SE 7 9 4 5 1022.1 1022.1 1.6
02/04:30am 8.2 5.4 5.3 82 1.3 S 9 13 5 7 1021.7 1021.7 1.6
02/04:00am 8.8 6.5 5.9 82 1.3 S 7 9 4 5 1021.4 1021.4 1.6
02/03:30am 8.4 5.6 5.2 80 1.4 S 9 15 5 8 1021.0 1021.0 1.4
02/03:00am 9.4 5.4 5.0 74 2.0 SSW 15 22 8 12 1020.7 1020.7 1.2
02/02:30am 9.4 5.7 4.6 72 2.1 S 13 19 7 10 1020.7 1020.7 1.2
02/02:00am 10.1 4.4 4.7 69 2.4 SW 24 35 13 19 1020.5 1020.5 1.2
02/01:30am 9.9 3.8 4.9 71 2.2 SW 26 35 14 19 1020.5 1020.5 1.2
02/01:00am 9.8 4.6 5.4 74 2.0 SW 22 30 12 16 1020.3 1020.3 1.2
02/12:30am 9.9 4.4 5.7 75 1.9 SW 24 32 13 17 1020.2 1020.2 1.2
02/12:00am 9.9 4.0 5.7 75 1.9 SW 26 35 14 19 1020.2 1020.2 1.2
 
Date/Time
CST
Temp
°C
App
Temp
°C
Dew
Point
Rel
Hum
%
Delta-T
°C
Wind Press
QNH
hPa
Press
MSL
hPa
Rain
since 9 am
mm
Dir
 
Spd
km/h
Gust
km/h
Spd
kts
Gust
kts
01/11:30pm 9.3 5.5 5.9 79 1.6 SSW 15 24 8 13 1020.1 1020.1 1.2
01/11:00pm 9.9 3.7 6.1 77 1.8 SW 28 32 15 17 1019.9 1019.9 1.2
01/10:30pm 10.2 4.5 6.5 78 1.7 SW 26 33 14 18 1019.7 1019.7 1.2
01/10:00pm 9.7 6.2 7.0 83 1.3 SW 15 20 8 11 1019.5 1019.5 1.2
01/09:30pm 9.7 5.1 6.4 80 1.5 SSW 20 30 11 16 1019.1 1019.1 1.2
01/09:00pm 9.9 5.0 7.0 82 1.4 SW 22 37 12 20 1018.8 1018.8 1.2
01/08:30pm 9.1 4.7 6.5 84 1.2 SSW 19 22 10 12 1018.6 1018.6 1.2
01/08:00pm 9.9 1.8 7.0 82 1.4 SW 39 57 21 31 1018.0 1018.0 0.8
01/07:31pm 11.1 4.4 8.1 82 1.5 WSW 33 52 18 28 1017.4 1017.4 0.8
01/07:30pm 11.2 4.7 8.2 82 1.5 WSW 32 48 17 26 1017.5 1017.5 0.8
01/07:25pm 11.0 5.3 8.4 84 1.3 WSW 28 33 15 18 1017.5 1017.5 0.8
01/07:00pm 9.1 6.7 7.2 88 0.9 W 9 11 5 6 1017.3 1017.3 0.8
01/06:30pm 9.3 6.5 7.1 86 1.0 SW 11 13 6 7 1016.9 1016.9 0.8
01/06:04pm 9.7 2.4 7.1 84 1.2 SW 35 54 19 29 1016.8 1016.8 0.6
01/06:00pm 9.9 1.8 6.8 81 1.5 SW 39 54 21 29 1016.6 1016.6 0.6
01/05:49pm 11.6 3.0 6.5 71 2.4 SW 41 50 22 27 1016.4 1016.4 0.6
01/05:30pm 12.1 7.5 8.2 77 1.9 SW 22 32 12 17 1016.0 1016.0 0.6
01/05:00pm 12.8 9.6 8.3 74 2.2 W 15 20 8 11 1015.6 1015.6 0.6
01/04:30pm 13.2 7.9 6.8 65 3.1 WSW 24 30 13 16 1015.4 1015.4 0.6
01/04:00pm 13.8 7.9 5.9 59 3.7 WSW 26 35 14 19 1014.9 1014.9 0.6
01/03:30pm 14.9 8.7 6.2 56 4.2 SW 28 35 15 19 1014.7 1014.7 0.6
01/03:00pm 15.2 9.0 6.2 55 4.3 SW 28 39 15 21 1014.5 1014.5 0.6
01/02:30pm 15.3 7.9 5.2 51 4.8 SW 33 39 18 21 1014.4 1014.4 0.6
01/02:00pm 15.2 8.5 5.4 52 4.7 SW 30 39 16 21 1014.2 1014.2 0.6
01/01:30pm 14.3 7.7 6.2 58 3.9 SW 30 44 16 24 1014.3 1014.3 0.6
01/01:00pm 14.7 8.3 6.8 59 3.8 WSW 30 41 16 22 1014.4 1014.4 0.6
01/12:30pm 14.8 8.2 7.8 63 3.5 SW 32 41 17 22 1014.5 1014.5 0.6
01/12:00pm 14.6 8.3 7.4 62 3.5 SW 30 44 16 24 1014.5 1014.5 0.6
01/11:30am 13.5 8.0 9.0 74 2.3 WSW 28 35 15 19 1014.5 1014.5 0.6
01/11:00am 13.4 9.4 10.6 83 1.5 WSW 22 30 12 16 1014.6 1014.6 0.6
01/10:30am 12.5 8.9 10.6 88 1.0 WSW 20 26 11 14 1014.6 1014.6 0.6
01/10:00am 12.5 9.9 10.6 88 1.0 W 15 19 8 10 1014.4 1014.4 0.6
01/09:44am 12.1 10.2 10.5 90 0.8 W 11 15 6 8 1014.3 1014.3 0.6
01/09:33am 11.9 10.8 10.5 91 0.7 WSW 7 9 4 5 1014.4 1014.4 0.6
01/09:30am 11.8 10.6 10.4 91 0.7 WSW 7 9 4 5 1014.3 1014.3 0.6
01/09:00am 11.4 8.9 9.8 90 0.8 SSW 13 17 7 9 1014.3 1014.3 6.8
01/08:40am 11.3 7.5 9.7 90 0.8 SSW 20 28 11 15 1014.1 1014.1 6.8
01/08:30am 11.4 6.9 10.0 91 0.7 SW 24 32 13 17 1013.9 1013.9 6.8
01/08:23am 11.9 9.0 11.0 94 0.5 W 17 24 9 13 1014.0 1014.0 6.4
01/08:00am 11.5 9.6 10.6 94 0.5 W 11 17 6 9 1013.4 1013.4 6.2
01/07:58am 11.5 9.2 10.6 94 0.5 W 13 17 7 9 1013.4 1013.4 6.2
01/07:33am 11.5 8.1 10.6 94 0.5 WSW 19 24 10 13 1013.5 1013.5 5.8
01/07:30am 11.4 7.8 10.5 94 0.5 WSW 20 24 11 13 1013.5 1013.5 5.6
01/07:20am 11.3 7.7 10.4 94 0.5 WSW 20 26 11 14 1013.3 1013.3 5.6
01/07:19am 11.3 7.7 10.5 95 0.4 WSW 20 26 11 14 1013.3 1013.3 5.6
01/07:00am 11.8 8.5 11.0 95 0.4 NW 19 22 10 12 1012.8 1012.8 5.2
01/06:52am 11.7 9.2 10.9 95 0.4 NNW 15 19 8 10 1012.6 1012.6 5.0
01/06:40am 11.7 9.9 10.9 95 0.4 NNW 11 13 6 7 1012.7 1012.7 4.8
01/06:30am 11.6 9.4 10.8 95 0.4 NNW 13 15 7 8 1012.7 1012.7 4.8
01/06:00am 11.7 9.9 10.8 94 0.5 N 11 15 6 8 1012.4 1012.4 4.8
01/05:36am 11.6 10.1 10.7 94 0.5 NW 9 13 5 7 1012.2 1012.2 4.8
01/05:30am 11.6 10.1 10.7 94 0.5 NNW 9 13 5 7 1012.2 1012.2 4.8
01/05:00am 11.7 10.3 10.8 94 0.5 NW 9 11 5 6 1012.2 1012.2 4.8
01/04:34am 11.7 10.3 10.8 94 0.5 NW 9 11 5 6 1012.1 1012.1 4.8
01/04:30am 11.7 10.3 10.8 94 0.5 NW 9 11 5 6 1012.0 1012.0 4.8
01/04:00am 11.6 10.5 10.5 93 0.6 WSW 7 9 4 5 1011.4 1011.4 4.8
01/03:30am 11.5 9.6 10.4 93 0.6 SW 11 13 6 7 1011.4 1011.4 4.4
01/03:00am 11.6 9.3 10.5 93 0.6 SW 13 17 7 9 1011.7 1011.7 3.6
01/02:30am 11.7 8.6 10.4 92 0.7 WSW 17 22 9 12 1012.2 1012.2 2.0
01/02:00am 11.9 8.9 10.5 91 0.7 SW 17 22 9 12 1011.9 1011.9 1.2
01/01:30am 12.5 8.2 10.9 90 0.8 SW 24 32 13 17 1012.1 1012.1 0.8
01/01:00am 13.3 10.7 11.9 91 0.7 WSW 17 20 9 11 1012.0 1012.0 0.2
01/12:30am 13.3 11.0 11.7 90 0.9 W 15 17 8 9 1012.3 1012.3 0.0
01/12:00am 13.8 10.6 11.8 88 1.1 WSW 20 26 11 14 1012.0 1012.0 0.0
 
Date/Time
CST
Temp
°C
App
Temp
°C
Dew
Point
Rel
Hum
%
Delta-T
°C
Wind Press
QNH
hPa
Press
MSL
hPa
Rain
since 9 am
mm
Dir
 
Spd
km/h
Gust
km/h
Spd
kts
Gust
kts
31/11:43pm 14.1 11.8 11.6 85 1.3 WSW 15 20 8 11 1012.2 1012.2 0.0
31/11:34pm 14.0 11.2 11.5 85 1.3 WSW 17 22 9 12 1012.5 1012.5 0.0
31/11:30pm 14.0 11.2 11.5 85 1.3 SW 17 22 9 12 1012.2 1012.2 0.0
31/11:00pm 14.3 11.5 11.5 83 1.5 SSW 17 28 9 15 1011.1 1011.1 0.0
31/10:47pm 14.5 11.4 11.6 83 1.6 SW 19 24 10 13 1011.3 1011.3 0.0
31/10:30pm 14.4 11.2 11.4 82 1.6 SW 19 24 10 13 1012.1 1012.1 0.0
31/10:00pm 13.5 10.9 9.2 75 2.2 SSW 13 17 7 9 1011.2 1011.2 0.0
31/09:30pm 13.4 11.3 8.3 71 2.5 SW 9 13 5 7 1011.3 1011.3 0.0
31/09:00pm 13.5 10.5 7.5 67 2.9 W 13 17 7 9 1011.4 1011.4 0.0
31/08:30pm 14.9 12.1 7.0 59 3.9 SW 11 17 6 9 1010.7 1010.7 0.0
31/08:00pm 16.7 15.8 7.6 55 4.6 WSW 2 6 1 3 1010.9 1010.9 0.0
31/07:30pm 16.1 14.2 7.6 57 4.3 WNW 7 9 4 5 1011.2 1011.2 0.0
31/07:00pm 17.2 14.5 7.3 52 5.0 W 11 17 6 9 1010.6 1010.6 0.0
31/06:30pm 17.7 14.4 8.0 53 4.9 NE 15 17 8 9 1010.3 1010.3 0.0
31/06:00pm 18.1 15.1 7.5 50 5.4 NE 13 17 7 9 1010.5 1010.5 0.0
31/05:30pm 17.9 14.9 7.6 51 5.2 NNE 13 17 7 9 1010.3 1010.3 0.0
31/05:00pm 19.6 15.5 6.0 41 6.7 N 17 20 9 11 1010.2 1010.2 0.0
31/04:30pm 20.5 15.9 5.7 38 7.4 N 19 22 10 12 1010.0 1010.0 0.0
31/04:00pm 21.0 15.9 4.1 33 8.2 N 20 24 11 13 1009.8 1009.8 0.0
31/03:30pm 21.6 15.6 3.3 30 8.7 N 24 32 13 17 1010.5 1010.5 0.0
31/03:00pm 21.7 15.7 3.4 30 8.8 N 24 33 13 18 1010.7 1010.7 0.0
31/02:30pm 20.9 16.0 5.3 36 7.7 N 20 26 11 14 1011.6 1011.6 0.0
31/02:00pm 21.7 15.9 4.3 32 8.5 N 24 37 13 20 1011.8 1011.8 0.0
31/01:30pm 21.9 16.1 4.5 32 8.5 N 24 32 13 17 1012.4 1012.4 0.0
31/01:00pm 21.6 16.4 5.5 35 8.0 N 22 28 12 15 1013.0 1013.0 0.0
31/12:30pm 22.8 16.6 4.3 30 9.1 N 26 35 14 19 1013.4 1013.4 0.0
31/12:00pm 22.4 14.9 3.5 29 9.1 N 32 44 17 24 1014.3 1014.3 0.0
31/11:30am 21.0 14.2 3.2 31 8.4 N 28 46 15 25 1014.6 1014.6 0.0
31/11:23am 21.1 14.2 2.4 29 8.7 N 28 46 15 25 1014.7 1014.7 0.0
31/11:00am 20.7 14.2 2.5 30 8.5 N 26 37 14 20 1015.0 1015.0 0.0
31/10:30am 20.1 14.5 3.3 33 7.9 N 22 33 12 18 1015.8 1015.8 0.0
31/10:00am 16.7 12.8 5.3 47 5.5 NNE 15 20 8 11 1015.6 1015.6 0.0
31/09:30am 15.9 11.1 4.6 47 5.3 NNE 19 22 10 12 1015.5 1015.5 0.0
31/09:00am 15.2 10.8 4.6 49 4.9 NE 17 20 9 11 1015.7 1015.7 0.0
31/08:30am 14.1 9.6 4.4 52 4.5 NNE 17 22 9 12 1015.8 1015.8 0.0
31/08:00am 13.9 9.1 4.5 53 4.3 NE 19 22 10 12 1015.9 1015.9 0.0
31/07:30am 11.9 7.3 3.7 57 3.6 NE 17 20 9 11 1016.1 1016.1 0.0
31/07:00am 10.2 5.6 3.7 64 2.9 NE 17 19 9 10 1016.2 1016.2 0.0
31/06:30am 10.7 7.2 3.3 60 3.2 NNE 11 13 6 7 1016.4 1016.4 0.0
31/06:00am 11.7 7.0 3.0 55 3.8 NE 17 20 9 11 1015.8 1015.8 0.0
31/05:30am 11.5 6.4 3.0 56 3.7 NE 19 20 10 11 1015.7 1015.7 0.0
31/05:00am 11.6 6.5 2.9 55 3.8 NE 19 22 10 12 1015.7 1015.7 0.0
31/04:30am 11.9 7.2 2.9 54 3.9 NE 17 20 9 11 1015.6 1015.6 0.0
31/04:00am 11.8 6.7 3.1 55 3.8 NE 19 24 10 13 1015.5 1015.5 0.0
31/03:30am 11.4 6.4 3.7 59 3.4 NE 19 20 10 11 1015.7 1015.7 0.0
31/03:00am 11.0 6.1 4.0 62 3.1 NE 19 22 10 12 1015.8 1015.8 0.0
31/02:30am 9.8 4.9 4.2 68 2.5 NE 19 20 10 11 1016.2 1016.2 0.0
31/02:00am 10.1 5.9 4.0 66 2.7 NNE 15 19 8 10 1016.6 1016.6 0.0
31/01:30am 10.7 6.9 4.0 63 3.0 NNE 13 19 7 10 1016.7 1016.7 0.0
31/01:00am 11.9 7.2 5.1 63 3.1 NE 19 22 10 12 1016.8 1016.8 0.0
31/12:30am 11.0 6.3 5.3 68 2.6 NE 19 20 10 11 1017.0 1017.0 0.0
31/12:00am 11.3 7.5 5.6 68 2.6 NE 15 19 8 10 1017.3 1017.3 0.0
 
Date/Time
CST
Temp
°C
App
Temp
°C
Dew
Point
Rel
Hum
%
Delta-T
°C
Wind Press
QNH
hPa
Press
MSL
hPa
Rain
since 9 am
mm
Dir
 
Spd
km/h
Gust
km/h
Spd
kts
Gust
kts
30/11:30pm 11.7 7.6 6.0 68 2.7 NE 17 19 9 10 1017.5 1017.5 0.0
30/11:00pm 10.9 7.1 5.7 70 2.4 NE 15 17 8 9 1017.8 1017.8 0.0
30/10:30pm 10.4 6.9 5.4 71 2.3 ENE 13 15 7 8 1018.1 1018.1 0.0
30/10:00pm 11.3 8.0 6.2 71 2.4 NE 13 17 7 9 1018.4 1018.4 0.0
30/09:30pm 11.0 7.6 6.0 71 2.3 NE 13 13 7 7 1018.6 1018.6 0.0
30/09:00pm 11.9 8.9 5.8 66 2.8 ENE 11 11 6 6 1018.7 1018.7 0.0
30/08:30pm 12.2 9.7 6.5 68 2.7 NE 9 11 5 6 1018.9 1018.9 0.0
30/08:00pm 13.7 11.2 6.6 62 3.4 ENE 9 11 5 6 1018.9 1018.9 0.0
30/07:30pm 14.9 12.7 6.0 55 4.3 E 7 9 4 5 1018.9 1018.9 0.0
30/07:00pm 16.1 13.4 5.4 49 5.1 E 9 13 5 7 1018.9 1018.9 0.0
30/06:30pm 17.6 15.4 5.2 44 6.0 SE 6 7 3 4 1019.1 1019.1 0.0
30/06:00pm 19.3 17.8 5.0 39 6.9 SSE 2 7 1 4 1019.1 1019.1 0.0
30/05:30pm 20.3 18.3 4.4 35 7.7 SSW 4 9 2 5 1018.9 1018.9 0.0
30/05:00pm 19.9 17.9 8.6 48 5.9 WSW 9 11 5 6 1018.8 1018.8 0.0
30/04:30pm 21.9 18.3 4.9 33 8.4 W 13 17 7 9 1018.8 1018.8 0.0
30/04:00pm 21.8 17.5 5.3 34 8.2 W 17 26 9 14 1019.2 1019.2 0.0
30/03:30pm 23.7 18.5 3.6 27 9.8 NNW 20 26 11 14 1019.4 1019.4 0.0
30/03:00pm 23.9 18.3 3.2 26 10.0 NNW 22 30 12 16 1019.5 1019.5 0.0
30/02:30pm 23.7 18.8 4.1 28 9.6 N 19 32 10 17 1019.7 1019.7 0.0
30/02:00pm 24.2 17.3 2.4 24 10.4 NNW 28 35 15 19 1020.1 1020.1 0.0
30/01:30pm 24.0 17.4 2.2 24 10.3 N 26 35 14 19 1020.4 1020.4 0.0
30/01:00pm 24.2 17.9 3.5 26 10.1 N 26 35 14 19 1020.8 1020.8 0.0
30/12:30pm 23.8 18.2 5.2 30 9.3 N 24 30 13 16 1021.4 1021.4 0.0
30/12:00pm 23.1 17.9 3.6 28 9.4 NNW 20 28 11 15 1021.9 1021.9 0.0
30/11:30am 23.3 18.9 4.8 30 9.2 NNW 17 24 9 13 1022.3 1022.3 0.0
30/11:00am 22.2 18.7 7.2 38 7.7 N 15 20 8 11 1022.7 1022.7 0.0
30/10:30am 21.6 17.8 7.4 40 7.3 N 17 22 9 12 1023.0 1023.0 0.0
30/10:00am 20.3 17.0 8.0 45 6.4 NNE 15 19 8 10 1023.3 1023.3 0.0
30/09:30am 17.9 14.4 8.7 55 4.7 NE 17 20 9 11 1023.5 1023.5 0.0
30/09:00am 16.9 14.3 9.3 61 3.9 N 13 19 7 10 1023.7 1023.7 0.0
30/08:30am 14.4 12.8 8.8 69 2.8 NNW 7 15 4 8 1023.6 1023.6 0.0
30/08:00am 10.7 9.0 7.4 80 1.6 NNE 6 7 3 4 1023.4 1023.4 0.0
30/07:30am 7.5 5.2 5.5 87 0.9 ENE 7 9 4 5 1023.3 1023.3 0.0

Other Formats:

Comma delimited format used in spreadsheet applications
http://www.bom.gov.au/fwo/IDS60801/IDS60801.95676.axf

JavaScript Object Notation format (JSON) in row-major order
http://www.bom.gov.au/fwo/IDS60801/IDS60801.95676.json